sensor_id;sensor_type;location;lat;lon;timestamp;P1;durP1;ratioP1;P2;durP2;ratioP2
5245;SDS011;54412;51.206;6.888;2024-03-25T00:00:42;23.03;;;4.13;;
5245;SDS011;54412;51.206;6.888;2024-03-25T00:03:08;22.23;;;4.87;;
5245;SDS011;54412;51.206;6.888;2024-03-25T00:05:34;15.23;;;3.70;;
5245;SDS011;54412;51.206;6.888;2024-03-25T00:07:59;14.63;;;3.60;;
5245;SDS011;54412;51.206;6.888;2024-03-25T00:10:25;15.43;;;3.33;;
5245;SDS011;54412;51.206;6.888;2024-03-25T00:12:51;22.67;;;4.43;;
5245;SDS011;54412;51.206;6.888;2024-03-25T00:15:20;22.00;;;4.30;;
5245;SDS011;54412;51.206;6.888;2024-03-25T00:17:46;16.00;;;4.50;;
5245;SDS011;54412;51.206;6.888;2024-03-25T00:20:13;22.60;;;5.10;;
5245;SDS011;54412;51.206;6.888;2024-03-25T00:22:40;20.07;;;5.40;;
5245;SDS011;54412;51.206;6.888;2024-03-25T00:25:06;20.80;;;4.80;;
5245;SDS011;54412;51.206;6.888;2024-03-25T00:27:33;17.90;;;3.53;;
5245;SDS011;54412;51.206;6.888;2024-03-25T00:29:59;17.93;;;4.13;;
5245;SDS011;54412;51.206;6.888;2024-03-25T00:32:25;13.23;;;3.43;;
5245;SDS011;54412;51.206;6.888;2024-03-25T00:34:51;23.13;;;6.13;;
5245;SDS011;54412;51.206;6.888;2024-03-25T00:37:16;21.23;;;4.43;;
5245;SDS011;54412;51.206;6.888;2024-03-25T00:39:42;17.03;;;4.60;;
5245;SDS011;54412;51.206;6.888;2024-03-25T00:42:08;22.33;;;5.10;;
5245;SDS011;54412;51.206;6.888;2024-03-25T00:44:33;25.67;;;4.33;;
5245;SDS011;54412;51.206;6.888;2024-03-25T00:46:59;25.40;;;5.90;;
5245;SDS011;54412;51.206;6.888;2024-03-25T00:49:25;20.47;;;6.33;;
5245;SDS011;54412;51.206;6.888;2024-03-25T00:51:51;15.30;;;3.90;;
5245;SDS011;54412;51.206;6.888;2024-03-25T00:54:17;12.33;;;3.73;;
5245;SDS011;54412;51.206;6.888;2024-03-25T00:56:42;21.50;;;4.33;;
5245;SDS011;54412;51.206;6.888;2024-03-25T00:59:09;14.37;;;3.90;;
5245;SDS011;54412;51.206;6.888;2024-03-25T01:01:34;11.20;;;3.43;;
5245;SDS011;54412;51.206;6.888;2024-03-25T01:04:03;20.77;;;4.60;;
5245;SDS011;54412;51.206;6.888;2024-03-25T01:06:29;18.70;;;4.30;;
5245;SDS011;54412;51.206;6.888;2024-03-25T01:08:55;19.20;;;5.77;;
5245;SDS011;54412;51.206;6.888;2024-03-25T01:11:20;35.27;;;4.90;;
5245;SDS011;54412;51.206;6.888;2024-03-25T01:13:46;13.40;;;4.47;;
5245;SDS011;54412;51.206;6.888;2024-03-25T01:16:13;22.33;;;5.70;;
5245;SDS011;54412;51.206;6.888;2024-03-25T01:18:39;13.77;;;5.20;;
5245;SDS011;54412;51.206;6.888;2024-03-25T01:21:05;19.80;;;4.17;;
5245;SDS011;54412;51.206;6.888;2024-03-25T01:23:31;15.57;;;5.23;;
5245;SDS011;54412;51.206;6.888;2024-03-25T01:25:56;20.43;;;5.07;;
5245;SDS011;54412;51.206;6.888;2024-03-25T01:28:22;22.97;;;5.10;;
5245;SDS011;54412;51.206;6.888;2024-03-25T01:30:48;20.73;;;4.00;;
5245;SDS011;54412;51.206;6.888;2024-03-25T01:33:14;22.03;;;5.07;;
5245;SDS011;54412;51.206;6.888;2024-03-25T01:35:40;23.27;;;5.03;;
5245;SDS011;54412;51.206;6.888;2024-03-25T01:38:06;19.23;;;4.50;;
5245;SDS011;54412;51.206;6.888;2024-03-25T01:40:32;20.87;;;6.10;;
5245;SDS011;54412;51.206;6.888;2024-03-25T01:43:02;16.00;;;5.23;;
5245;SDS011;54412;51.206;6.888;2024-03-25T01:45:29;17.20;;;5.73;;
5245;SDS011;54412;51.206;6.888;2024-03-25T01:48:01;21.90;;;5.47;;
5245;SDS011;54412;51.206;6.888;2024-03-25T01:50:32;19.00;;;5.00;;
5245;SDS011;54412;51.206;6.888;2024-03-25T01:53:02;15.73;;;4.90;;
5245;SDS011;54412;51.206;6.888;2024-03-25T01:55:29;19.40;;;5.10;;
5245;SDS011;54412;51.206;6.888;2024-03-25T01:57:59;18.30;;;4.77;;
5245;SDS011;54412;51.206;6.888;2024-03-25T02:00:26;13.63;;;5.13;;
5245;SDS011;54412;51.206;6.888;2024-03-25T02:02:52;21.70;;;4.57;;
5245;SDS011;54412;51.206;6.888;2024-03-25T02:05:19;14.10;;;4.30;;
5245;SDS011;54412;51.206;6.888;2024-03-25T02:07:45;14.13;;;4.37;;
5245;SDS011;54412;51.206;6.888;2024-03-25T02:10:13;14.70;;;4.97;;
5245;SDS011;54412;51.206;6.888;2024-03-25T02:12:40;22.93;;;5.23;;
5245;SDS011;54412;51.206;6.888;2024-03-25T02:15:10;18.47;;;4.97;;
5245;SDS011;54412;51.206;6.888;2024-03-25T02:17:41;13.60;;;5.07;;
5245;SDS011;54412;51.206;6.888;2024-03-25T02:20:06;16.93;;;4.60;;
5245;SDS011;54412;51.206;6.888;2024-03-25T02:22:33;17.07;;;5.50;;
5245;SDS011;54412;51.206;6.888;2024-03-25T02:25:01;20.53;;;6.07;;
5245;SDS011;54412;51.206;6.888;2024-03-25T02:27:35;15.70;;;4.80;;
5245;SDS011;54412;51.206;6.888;2024-03-25T02:30:05;19.97;;;4.70;;
5245;SDS011;54412;51.206;6.888;2024-03-25T02:32:36;20.93;;;5.30;;
5245;SDS011;54412;51.206;6.888;2024-03-25T02:35:03;16.10;;;5.07;;
5245;SDS011;54412;51.206;6.888;2024-03-25T02:37:32;18.30;;;4.70;;
5245;SDS011;54412;51.206;6.888;2024-03-25T02:39:59;17.20;;;5.27;;
5245;SDS011;54412;51.206;6.888;2024-03-25T02:42:27;14.67;;;4.77;;
5245;SDS011;54412;51.206;6.888;2024-03-25T02:44:54;13.60;;;4.33;;
5245;SDS011;54412;51.206;6.888;2024-03-25T02:47:21;18.33;;;4.93;;
5245;SDS011;54412;51.206;6.888;2024-03-25T02:49:47;22.70;;;5.57;;
5245;SDS011;54412;51.206;6.888;2024-03-25T02:52:13;24.50;;;5.17;;
5245;SDS011;54412;51.206;6.888;2024-03-25T02:54:39;19.50;;;5.73;;
5245;SDS011;54412;51.206;6.888;2024-03-25T02:57:05;16.00;;;4.50;;
5245;SDS011;54412;51.206;6.888;2024-03-25T02:59:30;28.80;;;5.07;;
5245;SDS011;54412;51.206;6.888;2024-03-25T03:01:56;15.33;;;5.20;;
5245;SDS011;54412;51.206;6.888;2024-03-25T03:04:22;16.70;;;4.87;;
5245;SDS011;54412;51.206;6.888;2024-03-25T03:06:47;18.57;;;4.20;;
5245;SDS011;54412;51.206;6.888;2024-03-25T03:09:13;15.00;;;4.87;;
5245;SDS011;54412;51.206;6.888;2024-03-25T03:11:39;18.10;;;4.60;;
5245;SDS011;54412;51.206;6.888;2024-03-25T03:14:04;17.93;;;5.20;;
5245;SDS011;54412;51.206;6.888;2024-03-25T03:16:31;19.33;;;5.27;;
5245;SDS011;54412;51.206;6.888;2024-03-25T03:18:56;19.17;;;4.83;;
5245;SDS011;54412;51.206;6.888;2024-03-25T03:21:22;15.13;;;4.10;;
5245;SDS011;54412;51.206;6.888;2024-03-25T03:23:47;14.33;;;4.00;;
5245;SDS011;54412;51.206;6.888;2024-03-25T03:26:13;19.27;;;4.80;;
5245;SDS011;54412;51.206;6.888;2024-03-25T03:28:42;17.70;;;5.23;;
5245;SDS011;54412;51.206;6.888;2024-03-25T03:31:07;14.67;;;4.70;;
5245;SDS011;54412;51.206;6.888;2024-03-25T03:33:33;15.57;;;4.40;;
5245;SDS011;54412;51.206;6.888;2024-03-25T03:35:59;16.90;;;4.13;;
5245;SDS011;54412;51.206;6.888;2024-03-25T03:38:24;14.67;;;3.87;;
5245;SDS011;54412;51.206;6.888;2024-03-25T03:40:57;20.57;;;5.17;;
5245;SDS011;54412;51.206;6.888;2024-03-25T03:43:27;19.53;;;4.33;;
5245;SDS011;54412;51.206;6.888;2024-03-25T03:45:53;22.33;;;5.30;;
5245;SDS011;54412;51.206;6.888;2024-03-25T03:48:19;23.23;;;5.37;;
5245;SDS011;54412;51.206;6.888;2024-03-25T03:50:45;18.10;;;4.37;;
5245;SDS011;54412;51.206;6.888;2024-03-25T03:53:11;19.00;;;5.27;;
5245;SDS011;54412;51.206;6.888;2024-03-25T03:55:37;15.30;;;4.80;;
5245;SDS011;54412;51.206;6.888;2024-03-25T03:58:03;13.60;;;4.10;;
5245;SDS011;54412;51.206;6.888;2024-03-25T04:00:29;13.43;;;3.60;;
5245;SDS011;54412;51.206;6.888;2024-03-25T04:02:58;21.40;;;4.47;;
5245;SDS011;54412;51.206;6.888;2024-03-25T04:05:23;13.93;;;3.70;;
5245;SDS011;54412;51.206;6.888;2024-03-25T04:07:52;16.70;;;4.63;;
5245;SDS011;54412;51.206;6.888;2024-03-25T04:10:18;15.83;;;4.03;;
5245;SDS011;54412;51.206;6.888;2024-03-25T04:12:44;12.70;;;4.43;;
5245;SDS011;54412;51.206;6.888;2024-03-25T04:15:09;18.33;;;4.63;;
5245;SDS011;54412;51.206;6.888;2024-03-25T04:17:42;16.87;;;4.93;;
5245;SDS011;54412;51.206;6.888;2024-03-25T04:20:10;11.73;;;4.87;;
5245;SDS011;54412;51.206;6.888;2024-03-25T04:22:40;13.97;;;4.73;;
5245;SDS011;54412;51.206;6.888;2024-03-25T04:25:08;16.20;;;4.33;;
5245;SDS011;54412;51.206;6.888;2024-03-25T04:27:46;12.73;;;4.50;;
5245;SDS011;54412;51.206;6.888;2024-03-25T04:30:12;12.00;;;3.73;;
5245;SDS011;54412;51.206;6.888;2024-03-25T04:32:38;19.30;;;4.10;;
5245;SDS011;54412;51.206;6.888;2024-03-25T04:35:07;15.57;;;4.37;;
5245;SDS011;54412;51.206;6.888;2024-03-25T04:37:33;10.10;;;3.93;;
5245;SDS011;54412;51.206;6.888;2024-03-25T04:40:00;19.20;;;3.77;;
5245;SDS011;54412;51.206;6.888;2024-03-25T04:42:28;15.27;;;5.37;;
5245;SDS011;54412;51.206;6.888;2024-03-25T04:44:53;15.53;;;5.30;;
5245;SDS011;54412;51.206;6.888;2024-03-25T04:47:19;27.93;;;5.07;;
5245;SDS011;54412;51.206;6.888;2024-03-25T04:49:45;10.50;;;4.43;;
5245;SDS011;54412;51.206;6.888;2024-03-25T04:52:11;15.70;;;4.57;;
5245;SDS011;54412;51.206;6.888;2024-03-25T04:54:38;12.60;;;4.40;;
5245;SDS011;54412;51.206;6.888;2024-03-25T04:57:04;17.03;;;4.10;;
5245;SDS011;54412;51.206;6.888;2024-03-25T04:59:31;17.27;;;4.60;;
5245;SDS011;54412;51.206;6.888;2024-03-25T05:01:57;9.10;;;3.70;;
5245;SDS011;54412;51.206;6.888;2024-03-25T05:04:23;17.60;;;4.27;;
5245;SDS011;54412;51.206;6.888;2024-03-25T05:06:49;15.53;;;4.10;;
5245;SDS011;54412;51.206;6.888;2024-03-25T05:09:15;19.77;;;4.87;;
5245;SDS011;54412;51.206;6.888;2024-03-25T05:11:41;14.83;;;4.50;;
5245;SDS011;54412;51.206;6.888;2024-03-25T05:14:07;7.93;;;4.10;;
5245;SDS011;54412;51.206;6.888;2024-03-25T05:16:33;12.63;;;5.10;;
5245;SDS011;54412;51.206;6.888;2024-03-25T05:18:58;21.27;;;4.60;;
5245;SDS011;54412;51.206;6.888;2024-03-25T05:21:24;22.63;;;5.80;;
5245;SDS011;54412;51.206;6.888;2024-03-25T05:23:50;19.73;;;5.30;;
5245;SDS011;54412;51.206;6.888;2024-03-25T05:26:15;21.10;;;5.67;;
5245;SDS011;54412;51.206;6.888;2024-03-25T05:28:41;16.10;;;7.17;;
5245;SDS011;54412;51.206;6.888;2024-03-25T05:31:07;20.10;;;8.40;;
5245;SDS011;54412;51.206;6.888;2024-03-25T05:33:34;17.77;;;8.30;;
5245;SDS011;54412;51.206;6.888;2024-03-25T05:36:00;18.87;;;8.23;;
5245;SDS011;54412;51.206;6.888;2024-03-25T05:38:27;20.33;;;7.67;;
5245;SDS011;54412;51.206;6.888;2024-03-25T05:40:53;24.47;;;7.90;;
5245;SDS011;54412;51.206;6.888;2024-03-25T05:43:19;17.20;;;7.23;;
5245;SDS011;54412;51.206;6.888;2024-03-25T05:45:52;23.20;;;8.33;;
5245;SDS011;54412;51.206;6.888;2024-03-25T05:48:21;17.77;;;6.87;;
5245;SDS011;54412;51.206;6.888;2024-03-25T05:50:57;18.87;;;6.10;;
5245;SDS011;54412;51.206;6.888;2024-03-25T05:53:39;29.77;;;7.17;;
5245;SDS011;54412;51.206;6.888;2024-03-25T05:56:05;27.60;;;5.80;;
5245;SDS011;54412;51.206;6.888;2024-03-25T05:58:31;18.63;;;6.33;;
5245;SDS011;54412;51.206;6.888;2024-03-25T06:00:56;27.13;;;7.30;;
5245;SDS011;54412;51.206;6.888;2024-03-25T06:03:23;23.77;;;7.33;;
5245;SDS011;54412;51.206;6.888;2024-03-25T06:05:49;29.73;;;8.77;;
5245;SDS011;54412;51.206;6.888;2024-03-25T06:08:14;24.87;;;8.33;;
5245;SDS011;54412;51.206;6.888;2024-03-25T06:10:49;19.67;;;7.10;;
5245;SDS011;54412;51.206;6.888;2024-03-25T06:13:18;24.80;;;8.53;;
5245;SDS011;54412;51.206;6.888;2024-03-25T06:15:45;23.00;;;6.33;;
5245;SDS011;54412;51.206;6.888;2024-03-25T06:18:10;18.57;;;6.20;;
5245;SDS011;54412;51.206;6.888;2024-03-25T06:20:36;14.70;;;5.63;;
5245;SDS011;54412;51.206;6.888;2024-03-25T06:23:03;22.10;;;6.40;;
5245;SDS011;54412;51.206;6.888;2024-03-25T06:25:29;19.87;;;6.50;;
5245;SDS011;54412;51.206;6.888;2024-03-25T06:27:55;19.97;;;6.10;;
5245;SDS011;54412;51.206;6.888;2024-03-25T06:30:22;15.63;;;6.77;;
5245;SDS011;54412;51.206;6.888;2024-03-25T06:33:06;20.60;;;6.53;;
5245;SDS011;54412;51.206;6.888;2024-03-25T06:35:50;19.30;;;7.93;;
5245;SDS011;54412;51.206;6.888;2024-03-25T06:38:17;27.27;;;8.57;;
5245;SDS011;54412;51.206;6.888;2024-03-25T06:40:43;17.97;;;6.70;;
5245;SDS011;54412;51.206;6.888;2024-03-25T06:43:11;17.37;;;6.67;;
5245;SDS011;54412;51.206;6.888;2024-03-25T06:45:37;18.70;;;6.80;;
5245;SDS011;54412;51.206;6.888;2024-03-25T06:48:02;21.53;;;6.97;;
5245;SDS011;54412;51.206;6.888;2024-03-25T06:50:28;17.40;;;5.47;;
5245;SDS011;54412;51.206;6.888;2024-03-25T06:52:54;19.20;;;7.03;;
5245;SDS011;54412;51.206;6.888;2024-03-25T06:55:20;19.17;;;7.20;;
5245;SDS011;54412;51.206;6.888;2024-03-25T06:57:47;16.47;;;6.40;;
5245;SDS011;54412;51.206;6.888;2024-03-25T07:00:14;13.80;;;7.17;;
5245;SDS011;54412;51.206;6.888;2024-03-25T07:02:40;27.40;;;6.87;;
5245;SDS011;54412;51.206;6.888;2024-03-25T07:05:06;20.83;;;6.57;;
5245;SDS011;54412;51.206;6.888;2024-03-25T07:07:33;22.87;;;6.97;;
5245;SDS011;54412;51.206;6.888;2024-03-25T07:09:59;23.07;;;6.80;;
5245;SDS011;54412;51.206;6.888;2024-03-25T07:12:26;23.10;;;7.17;;
5245;SDS011;54412;51.206;6.888;2024-03-25T07:14:51;20.90;;;6.80;;
5245;SDS011;54412;51.206;6.888;2024-03-25T07:17:17;22.27;;;6.87;;
5245;SDS011;54412;51.206;6.888;2024-03-25T07:19:43;20.40;;;7.73;;
5245;SDS011;54412;51.206;6.888;2024-03-25T07:22:09;19.00;;;7.87;;
5245;SDS011;54412;51.206;6.888;2024-03-25T07:24:35;25.57;;;6.60;;
5245;SDS011;54412;51.206;6.888;2024-03-25T07:27:01;23.53;;;6.57;;
5245;SDS011;54412;51.206;6.888;2024-03-25T07:29:27;17.40;;;6.10;;
5245;SDS011;54412;51.206;6.888;2024-03-25T07:31:53;22.67;;;6.50;;
5245;SDS011;54412;51.206;6.888;2024-03-25T07:34:19;18.63;;;6.70;;
5245;SDS011;54412;51.206;6.888;2024-03-25T07:36:44;23.47;;;7.47;;
5245;SDS011;54412;51.206;6.888;2024-03-25T07:39:10;16.17;;;6.97;;
5245;SDS011;54412;51.206;6.888;2024-03-25T07:41:36;25.23;;;7.30;;
5245;SDS011;54412;51.206;6.888;2024-03-25T07:44:02;15.10;;;6.80;;
5245;SDS011;54412;51.206;6.888;2024-03-25T07:46:29;17.63;;;7.83;;
5245;SDS011;54412;51.206;6.888;2024-03-25T07:48:55;22.97;;;6.83;;
5245;SDS011;54412;51.206;6.888;2024-03-25T07:51:21;22.00;;;6.50;;
5245;SDS011;54412;51.206;6.888;2024-03-25T07:53:47;20.77;;;7.13;;
5245;SDS011;54412;51.206;6.888;2024-03-25T07:56:14;21.83;;;5.47;;
5245;SDS011;54412;51.206;6.888;2024-03-25T07:58:40;21.27;;;5.90;;
5245;SDS011;54412;51.206;6.888;2024-03-25T08:01:06;24.60;;;7.13;;
5245;SDS011;54412;51.206;6.888;2024-03-25T08:03:32;32.23;;;7.13;;
5245;SDS011;54412;51.206;6.888;2024-03-25T08:05:58;24.23;;;6.23;;
5245;SDS011;54412;51.206;6.888;2024-03-25T08:08:24;27.50;;;5.97;;
5245;SDS011;54412;51.206;6.888;2024-03-25T08:10:50;25.93;;;7.17;;
5245;SDS011;54412;51.206;6.888;2024-03-25T08:13:17;15.60;;;6.00;;
5245;SDS011;54412;51.206;6.888;2024-03-25T08:15:44;17.17;;;6.67;;
5245;SDS011;54412;51.206;6.888;2024-03-25T08:18:10;14.10;;;5.43;;
5245;SDS011;54412;51.206;6.888;2024-03-25T08:20:37;20.97;;;5.67;;
5245;SDS011;54412;51.206;6.888;2024-03-25T08:23:03;22.53;;;5.30;;
5245;SDS011;54412;51.206;6.888;2024-03-25T08:25:30;13.10;;;4.87;;
5245;SDS011;54412;51.206;6.888;2024-03-25T08:27:56;17.43;;;5.30;;
5245;SDS011;54412;51.206;6.888;2024-03-25T08:30:23;22.57;;;5.30;;
5245;SDS011;54412;51.206;6.888;2024-03-25T08:32:49;18.07;;;5.80;;
5245;SDS011;54412;51.206;6.888;2024-03-25T08:35:15;23.90;;;6.60;;
5245;SDS011;54412;51.206;6.888;2024-03-25T08:37:40;17.50;;;5.60;;
5245;SDS011;54412;51.206;6.888;2024-03-25T08:40:06;19.40;;;5.50;;
5245;SDS011;54412;51.206;6.888;2024-03-25T08:42:34;15.63;;;5.07;;
5245;SDS011;54412;51.206;6.888;2024-03-25T08:45:00;18.77;;;5.20;;
5245;SDS011;54412;51.206;6.888;2024-03-25T08:47:26;11.67;;;5.17;;
5245;SDS011;54412;51.206;6.888;2024-03-25T08:49:51;16.30;;;5.00;;
5245;SDS011;54412;51.206;6.888;2024-03-25T08:52:17;20.27;;;4.77;;
5245;SDS011;54412;51.206;6.888;2024-03-25T08:54:43;14.70;;;5.87;;
5245;SDS011;54412;51.206;6.888;2024-03-25T08:57:08;17.10;;;5.03;;
5245;SDS011;54412;51.206;6.888;2024-03-25T08:59:34;20.87;;;4.97;;
5245;SDS011;54412;51.206;6.888;2024-03-25T09:02:00;12.13;;;4.47;;
5245;SDS011;54412;51.206;6.888;2024-03-25T09:04:26;15.17;;;4.63;;
5245;SDS011;54412;51.206;6.888;2024-03-25T09:06:52;13.33;;;4.00;;
5245;SDS011;54412;51.206;6.888;2024-03-25T09:09:17;15.87;;;3.53;;
5245;SDS011;54412;51.206;6.888;2024-03-25T09:12:01;10.60;;;2.97;;
5245;SDS011;54412;51.206;6.888;2024-03-25T09:14:27;9.50;;;3.23;;
5245;SDS011;54412;51.206;6.888;2024-03-25T09:16:54;14.87;;;3.50;;
5245;SDS011;54412;51.206;6.888;2024-03-25T09:19:19;12.20;;;2.97;;
5245;SDS011;54412;51.206;6.888;2024-03-25T09:21:45;17.40;;;3.40;;
5245;SDS011;54412;51.206;6.888;2024-03-25T09:24:10;18.03;;;3.53;;
5245;SDS011;54412;51.206;6.888;2024-03-25T09:26:36;14.27;;;2.60;;
5245;SDS011;54412;51.206;6.888;2024-03-25T09:29:02;7.67;;;2.83;;
5245;SDS011;54412;51.206;6.888;2024-03-25T09:31:28;14.97;;;3.03;;
5245;SDS011;54412;51.206;6.888;2024-03-25T09:33:53;19.73;;;4.77;;
5245;SDS011;54412;51.206;6.888;2024-03-25T09:36:19;10.63;;;2.60;;
5245;SDS011;54412;51.206;6.888;2024-03-25T09:38:45;17.03;;;4.30;;
5245;SDS011;54412;51.206;6.888;2024-03-25T09:41:10;9.30;;;2.37;;
5245;SDS011;54412;51.206;6.888;2024-03-25T09:43:40;19.53;;;3.23;;
5245;SDS011;54412;51.206;6.888;2024-03-25T09:46:10;7.93;;;2.70;;
5245;SDS011;54412;51.206;6.888;2024-03-25T09:48:37;13.53;;;2.97;;
5245;SDS011;54412;51.206;6.888;2024-03-25T09:51:03;7.70;;;2.70;;
5245;SDS011;54412;51.206;6.888;2024-03-25T09:53:29;14.13;;;3.30;;
5245;SDS011;54412;51.206;6.888;2024-03-25T09:55:56;6.90;;;2.67;;
5245;SDS011;54412;51.206;6.888;2024-03-25T09:58:22;14.73;;;3.27;;
5245;SDS011;54412;51.206;6.888;2024-03-25T10:00:50;9.73;;;3.07;;
5245;SDS011;54412;51.206;6.888;2024-03-25T10:03:16;10.37;;;2.60;;
5245;SDS011;54412;51.206;6.888;2024-03-25T10:05:42;12.87;;;2.87;;
5245;SDS011;54412;51.206;6.888;2024-03-25T10:08:08;10.70;;;3.20;;
5245;SDS011;54412;51.206;6.888;2024-03-25T10:10:34;15.20;;;3.43;;
5245;SDS011;54412;51.206;6.888;2024-03-25T10:13:02;12.43;;;2.87;;
5245;SDS011;54412;51.206;6.888;2024-03-25T10:15:29;8.10;;;3.10;;
5245;SDS011;54412;51.206;6.888;2024-03-25T10:17:56;10.70;;;2.90;;
5245;SDS011;54412;51.206;6.888;2024-03-25T10:20:21;7.93;;;2.30;;
5245;SDS011;54412;51.206;6.888;2024-03-25T10:22:47;10.40;;;2.97;;
5245;SDS011;54412;51.206;6.888;2024-03-25T10:25:51;9.10;;;3.50;;
5245;SDS011;54412;51.206;6.888;2024-03-25T10:28:08;13.00;;;3.97;;
5245;SDS011;54412;51.206;6.888;2024-03-25T10:30:33;10.73;;;3.10;;
5245;SDS011;54412;51.206;6.888;2024-03-25T10:33:00;9.83;;;3.70;;
5245;SDS011;54412;51.206;6.888;2024-03-25T10:35:31;12.50;;;3.63;;
5245;SDS011;54412;51.206;6.888;2024-03-25T10:38:01;8.77;;;2.70;;
5245;SDS011;54412;51.206;6.888;2024-03-25T10:40:39;14.40;;;2.70;;
5245;SDS011;54412;51.206;6.888;2024-03-25T10:43:06;12.77;;;2.87;;
5245;SDS011;54412;51.206;6.888;2024-03-25T10:45:37;15.20;;;3.03;;
5245;SDS011;54412;51.206;6.888;2024-03-25T10:50:39;7.43;;;3.20;;
5245;SDS011;54412;51.206;6.888;2024-03-25T10:53:08;8.70;;;3.40;;
5245;SDS011;54412;51.206;6.888;2024-03-25T10:55:38;7.43;;;2.77;;
5245;SDS011;54412;51.206;6.888;2024-03-25T10:58:06;9.03;;;3.23;;
5245;SDS011;54412;51.206;6.888;2024-03-25T11:00:33;8.17;;;3.27;;
5245;SDS011;54412;51.206;6.888;2024-03-25T11:03:01;11.80;;;3.00;;
5245;SDS011;54412;51.206;6.888;2024-03-25T11:05:27;7.67;;;3.23;;
5245;SDS011;54412;51.206;6.888;2024-03-25T11:07:54;4.97;;;2.43;;
5245;SDS011;54412;51.206;6.888;2024-03-25T11:10:28;9.63;;;2.50;;
5245;SDS011;54412;51.206;6.888;2024-03-25T11:12:55;6.40;;;3.13;;
5245;SDS011;54412;51.206;6.888;2024-03-25T11:15:20;12.13;;;3.90;;
5245;SDS011;54412;51.206;6.888;2024-03-25T11:17:49;15.30;;;3.77;;
5245;SDS011;54412;51.206;6.888;2024-03-25T11:20:16;10.00;;;3.07;;
5245;SDS011;54412;51.206;6.888;2024-03-25T11:22:51;9.17;;;2.93;;
5245;SDS011;54412;51.206;6.888;2024-03-25T11:25:19;16.43;;;3.80;;
5245;SDS011;54412;51.206;6.888;2024-03-25T11:27:46;15.43;;;2.87;;
5245;SDS011;54412;51.206;6.888;2024-03-25T11:30:13;8.13;;;2.40;;
5245;SDS011;54412;51.206;6.888;2024-03-25T11:32:43;7.63;;;2.80;;
5245;SDS011;54412;51.206;6.888;2024-03-25T11:35:17;25.27;;;3.67;;
5245;SDS011;54412;51.206;6.888;2024-03-25T11:37:43;12.80;;;2.53;;
5245;SDS011;54412;51.206;6.888;2024-03-25T11:40:10;6.13;;;2.03;;
5245;SDS011;54412;51.206;6.888;2024-03-25T11:42:39;6.73;;;2.30;;
5245;SDS011;54412;51.206;6.888;2024-03-25T11:45:06;9.33;;;2.70;;
5245;SDS011;54412;51.206;6.888;2024-03-25T11:47:39;7.77;;;2.53;;
5245;SDS011;54412;51.206;6.888;2024-03-25T11:50:07;8.80;;;3.53;;
5245;SDS011;54412;51.206;6.888;2024-03-25T11:52:34;7.57;;;3.07;;
5245;SDS011;54412;51.206;6.888;2024-03-25T11:55:00;7.60;;;2.50;;
5245;SDS011;54412;51.206;6.888;2024-03-25T11:57:26;10.30;;;3.20;;
5245;SDS011;54412;51.206;6.888;2024-03-25T11:59:53;13.10;;;3.50;;
5245;SDS011;54412;51.206;6.888;2024-03-25T12:02:19;7.73;;;2.47;;
5245;SDS011;54412;51.206;6.888;2024-03-25T12:04:44;10.60;;;2.17;;
5245;SDS011;54412;51.206;6.888;2024-03-25T12:07:14;7.63;;;3.10;;
5245;SDS011;54412;51.206;6.888;2024-03-25T12:09:40;13.27;;;2.87;;
5245;SDS011;54412;51.206;6.888;2024-03-25T12:12:24;8.13;;;3.20;;
5245;SDS011;54412;51.206;6.888;2024-03-25T12:14:51;9.87;;;3.10;;
5245;SDS011;54412;51.206;6.888;2024-03-25T12:17:18;14.40;;;3.93;;
5245;SDS011;54412;51.206;6.888;2024-03-25T12:19:57;6.17;;;2.47;;
5245;SDS011;54412;51.206;6.888;2024-03-25T12:22:25;13.50;;;3.10;;
5245;SDS011;54412;51.206;6.888;2024-03-25T12:24:51;15.13;;;2.93;;
5245;SDS011;54412;51.206;6.888;2024-03-25T12:27:17;10.90;;;3.40;;
5245;SDS011;54412;51.206;6.888;2024-03-25T12:29:43;7.03;;;2.80;;
5245;SDS011;54412;51.206;6.888;2024-03-25T12:32:12;6.90;;;2.80;;
5245;SDS011;54412;51.206;6.888;2024-03-25T12:34:37;6.17;;;2.20;;
5245;SDS011;54412;51.206;6.888;2024-03-25T12:37:03;4.17;;;1.97;;
5245;SDS011;54412;51.206;6.888;2024-03-25T12:39:29;8.13;;;2.60;;
5245;SDS011;54412;51.206;6.888;2024-03-25T12:41:55;8.43;;;2.70;;
5245;SDS011;54412;51.206;6.888;2024-03-25T12:44:21;10.40;;;3.00;;
5245;SDS011;54412;51.206;6.888;2024-03-25T12:46:47;7.23;;;2.87;;
5245;SDS011;54412;51.206;6.888;2024-03-25T12:49:12;8.00;;;2.83;;
5245;SDS011;54412;51.206;6.888;2024-03-25T12:51:38;7.10;;;2.37;;
5245;SDS011;54412;51.206;6.888;2024-03-25T12:54:04;7.33;;;2.50;;
5245;SDS011;54412;51.206;6.888;2024-03-25T12:56:29;8.30;;;2.43;;
5245;SDS011;54412;51.206;6.888;2024-03-25T12:58:55;4.90;;;2.07;;
5245;SDS011;54412;51.206;6.888;2024-03-25T13:01:21;8.07;;;2.93;;
5245;SDS011;54412;51.206;6.888;2024-03-25T13:03:47;6.53;;;2.57;;
5245;SDS011;54412;51.206;6.888;2024-03-25T13:06:12;6.50;;;2.33;;
5245;SDS011;54412;51.206;6.888;2024-03-25T13:08:38;5.33;;;2.50;;
5245;SDS011;54412;51.206;6.888;2024-03-25T13:11:03;8.00;;;2.53;;
5245;SDS011;54412;51.206;6.888;2024-03-25T13:13:29;6.40;;;2.17;;
5245;SDS011;54412;51.206;6.888;2024-03-25T13:15:55;6.70;;;2.50;;
5245;SDS011;54412;51.206;6.888;2024-03-25T13:18:20;5.20;;;1.83;;
5245;SDS011;54412;51.206;6.888;2024-03-25T13:20:46;8.50;;;2.17;;
5245;SDS011;54412;51.206;6.888;2024-03-25T13:23:12;7.43;;;1.90;;
5245;SDS011;54412;51.206;6.888;2024-03-25T13:25:37;4.50;;;1.80;;
5245;SDS011;54412;51.206;6.888;2024-03-25T13:28:03;7.30;;;2.13;;
5245;SDS011;54412;51.206;6.888;2024-03-25T13:30:30;8.87;;;1.90;;
5245;SDS011;54412;51.206;6.888;2024-03-25T13:32:57;5.00;;;1.67;;
5245;SDS011;54412;51.206;6.888;2024-03-25T13:35:23;6.30;;;1.77;;
5245;SDS011;54412;51.206;6.888;2024-03-25T13:37:49;3.53;;;1.30;;
5245;SDS011;54412;51.206;6.888;2024-03-25T13:40:15;4.93;;;1.67;;
5245;SDS011;54412;51.206;6.888;2024-03-25T13:42:40;8.03;;;1.97;;
5245;SDS011;54412;51.206;6.888;2024-03-25T13:45:06;6.20;;;1.70;;
5245;SDS011;54412;51.206;6.888;2024-03-25T13:47:32;6.13;;;1.87;;
5245;SDS011;54412;51.206;6.888;2024-03-25T13:50:04;6.20;;;2.33;;
5245;SDS011;54412;51.206;6.888;2024-03-25T13:52:34;4.50;;;2.30;;
5245;SDS011;54412;51.206;6.888;2024-03-25T13:55:03;4.13;;;1.87;;
5245;SDS011;54412;51.206;6.888;2024-03-25T13:57:29;2.80;;;1.40;;
5245;SDS011;54412;51.206;6.888;2024-03-25T13:59:55;6.77;;;2.20;;
5245;SDS011;54412;51.206;6.888;2024-03-25T14:02:21;4.90;;;1.27;;
5245;SDS011;54412;51.206;6.888;2024-03-25T14:04:48;5.97;;;1.53;;
5245;SDS011;54412;51.206;6.888;2024-03-25T14:07:14;1.80;;;1.57;;
5245;SDS011;54412;51.206;6.888;2024-03-25T14:09:39;2.87;;;1.60;;
5245;SDS011;54412;51.206;6.888;2024-03-25T14:12:05;5.87;;;1.97;;
5245;SDS011;54412;51.206;6.888;2024-03-25T14:14:31;4.33;;;1.70;;
5245;SDS011;54412;51.206;6.888;2024-03-25T14:16:57;4.03;;;1.80;;
5245;SDS011;54412;51.206;6.888;2024-03-25T14:19:22;6.70;;;1.67;;
5245;SDS011;54412;51.206;6.888;2024-03-25T14:21:49;6.10;;;1.67;;
5245;SDS011;54412;51.206;6.888;2024-03-25T14:24:15;7.93;;;2.40;;
5245;SDS011;54412;51.206;6.888;2024-03-25T14:26:41;5.83;;;2.57;;
5245;SDS011;54412;51.206;6.888;2024-03-25T14:29:06;4.43;;;2.27;;
5245;SDS011;54412;51.206;6.888;2024-03-25T14:31:33;6.77;;;2.00;;
5245;SDS011;54412;51.206;6.888;2024-03-25T14:33:58;4.47;;;1.70;;
5245;SDS011;54412;51.206;6.888;2024-03-25T14:36:24;4.63;;;1.50;;
5245;SDS011;54412;51.206;6.888;2024-03-25T14:38:50;4.87;;;1.80;;
5245;SDS011;54412;51.206;6.888;2024-03-25T14:41:19;5.67;;;1.70;;
5245;SDS011;54412;51.206;6.888;2024-03-25T14:43:46;4.57;;;1.80;;
5245;SDS011;54412;51.206;6.888;2024-03-25T14:46:13;7.73;;;1.70;;
5245;SDS011;54412;51.206;6.888;2024-03-25T14:48:39;3.90;;;1.70;;
5245;SDS011;54412;51.206;6.888;2024-03-25T14:51:05;3.03;;;1.40;;